AWC663 VTBD-FSIA
Flight info
| Callsign | AWC663 |
|---|---|
| Flight time | N/A |
| Altitude | 32000 |
| Route | BONVO3C BONVO M502 LALIT P762 KAT G465 OTKIR UM307 PRA DCT ROUTY ROUTY1D |
| Aircraft | A21N/M-SDE2E3FGHIRWXY/LB1 |
Departure
| Time | N/A |
|---|---|
| Airport | Don Mueang International Airport (VTBD) |
Arrival
| Time | 2026-04-21 14:53 |
|---|---|
| Airport | Seychelles International Airport (FSIA) |
| Time | Latitude | Longitude | Altitude | Speed | Heading |
|---|---|---|---|---|---|
| 2026-04-21 13:51 | -2.02610 | 60.94161 | 35837 ft | 440 kts | 248° |
| 2026-04-21 13:52 | -2.05075 | 60.88560 | 35841 ft | 440 kts | 248° |
| 2026-04-21 13:52 | -2.07525 | 60.82980 | 35841 ft | 440 kts | 248° |
| 2026-04-21 13:53 | -2.09980 | 60.77378 | 35840 ft | 440 kts | 248° |
| 2026-04-21 13:53 | -2.12445 | 60.71778 | 35841 ft | 440 kts | 248° |
| 2026-04-21 13:54 | -2.14897 | 60.66181 | 35841 ft | 440 kts | 248° |
| 2026-04-21 13:54 | -2.17363 | 60.60563 | 35840 ft | 440 kts | 248° |
| 2026-04-21 13:55 | -2.19809 | 60.54993 | 35841 ft | 440 kts | 248° |
| 2026-04-21 13:55 | -2.22260 | 60.49384 | 35837 ft | 440 kts | 248° |
| 2026-04-21 13:56 | -2.24716 | 60.43781 | 35837 ft | 440 kts | 248° |
| 2026-04-21 13:56 | -2.27159 | 60.38205 | 35841 ft | 440 kts | 248° |
| 2026-04-21 13:57 | -2.29620 | 60.32583 | 35841 ft | 440 kts | 248° |
| 2026-04-21 13:57 | -2.32071 | 60.27016 | 35840 ft | 440 kts | 248° |
| 2026-04-21 13:58 | -2.34520 | 60.21420 | 35840 ft | 439 kts | 248° |
| 2026-04-21 13:58 | -2.36975 | 60.15805 | 35842 ft | 439 kts | 248° |
| 2026-04-21 13:59 | -2.39415 | 60.10240 | 35841 ft | 439 kts | 248° |
| 2026-04-21 13:59 | -2.41866 | 60.04654 | 35837 ft | 438 kts | 248° |
| 2026-04-21 14:00 | -2.44309 | 59.99061 | 35840 ft | 438 kts | 248° |
| 2026-04-21 14:00 | -2.46760 | 59.93473 | 35840 ft | 438 kts | 248° |
| 2026-04-21 14:01 | -2.49200 | 59.87882 | 35842 ft | 438 kts | 249° |
| 2026-04-21 14:01 | -2.51639 | 59.82316 | 35844 ft | 438 kts | 249° |
| 2026-04-21 14:02 | -2.54090 | 59.76729 | 35844 ft | 438 kts | 249° |
| 2026-04-21 14:03 | -2.57738 | 59.68383 | 35842 ft | 438 kts | 249° |
| 2026-04-21 14:03 | -2.60180 | 59.62796 | 35843 ft | 438 kts | 249° |
| 2026-04-21 14:04 | -2.62628 | 59.57206 | 35844 ft | 438 kts | 249° |
| 2026-04-21 14:04 | -2.65071 | 59.51620 | 35844 ft | 438 kts | 249° |
| 2026-04-21 14:05 | -2.67512 | 59.46037 | 35844 ft | 437 kts | 249° |
| 2026-04-21 14:05 | -2.69934 | 59.40495 | 35844 ft | 437 kts | 249° |
| 2026-04-21 14:06 | -2.72372 | 59.34911 | 35841 ft | 437 kts | 249° |
| 2026-04-21 14:06 | -2.74811 | 59.29334 | 35844 ft | 437 kts | 249° |
| 2026-04-21 14:07 | -2.77246 | 59.23751 | 35846 ft | 438 kts | 249° |
| 2026-04-21 14:07 | -2.79686 | 59.18165 | 35847 ft | 438 kts | 249° |
| 2026-04-21 14:08 | -2.82110 | 59.12615 | 35846 ft | 438 kts | 249° |
| 2026-04-21 14:08 | -2.84549 | 59.07035 | 35846 ft | 438 kts | 249° |
| 2026-04-21 14:09 | -2.86576 | 59.02393 | 35844 ft | 438 kts | 249° |
| 2026-04-21 14:09 | -2.89010 | 58.96813 | 35846 ft | 437 kts | 249° |
| 2026-04-21 14:10 | -2.91457 | 58.91205 | 35845 ft | 437 kts | 249° |
| 2026-04-21 14:10 | -2.93874 | 58.85662 | 35847 ft | 437 kts | 249° |
| 2026-04-21 14:11 | -2.96303 | 58.80082 | 35846 ft | 437 kts | 249° |
| 2026-04-21 14:11 | -2.98742 | 58.74493 | 35846 ft | 437 kts | 249° |
| 2026-04-21 14:12 | -3.01182 | 58.68904 | 35845 ft | 437 kts | 249° |
| 2026-04-21 14:12 | -3.03615 | 58.63332 | 35843 ft | 437 kts | 249° |
| 2026-04-21 14:13 | -3.06057 | 58.57747 | 35842 ft | 437 kts | 249° |
| 2026-04-21 14:13 | -3.08478 | 58.52201 | 35843 ft | 437 kts | 249° |
| 2026-04-21 14:14 | -3.10907 | 58.46627 | 35846 ft | 437 kts | 249° |
| 2026-04-21 14:14 | -3.13349 | 58.41043 | 35846 ft | 437 kts | 249° |
| 2026-04-21 14:15 | -3.15786 | 58.35462 | 35847 ft | 437 kts | 249° |
| 2026-04-21 14:15 | -3.18222 | 58.29879 | 35846 ft | 437 kts | 249° |
| 2026-04-21 14:16 | -3.20639 | 58.24341 | 35846 ft | 437 kts | 249° |
| 2026-04-21 14:16 | -3.23071 | 58.18756 | 35851 ft | 437 kts | 249° |
| 2026-04-21 14:17 | -3.25495 | 58.13190 | 35845 ft | 435 kts | 249° |
| 2026-04-21 14:17 | -3.27911 | 58.07648 | 35846 ft | 434 kts | 249° |
| 2026-04-21 14:18 | -3.30335 | 58.02090 | 35854 ft | 434 kts | 249° |
| 2026-04-21 14:18 | -3.32745 | 57.96553 | 35854 ft | 434 kts | 249° |
| 2026-04-21 14:19 | -3.35160 | 57.91005 | 35851 ft | 434 kts | 249° |
| 2026-04-21 14:19 | -3.37557 | 57.85495 | 35850 ft | 434 kts | 249° |
| 2026-04-21 14:20 | -3.39977 | 57.79950 | 35852 ft | 434 kts | 249° |
| 2026-04-21 14:20 | -3.42396 | 57.74390 | 35853 ft | 435 kts | 249° |
| 2026-04-21 14:21 | -3.44801 | 57.68873 | 35851 ft | 435 kts | 249° |
| 2026-04-21 14:21 | -3.47212 | 57.63323 | 35852 ft | 435 kts | 249° |
| 2026-04-21 14:22 | -3.49638 | 57.57754 | 35854 ft | 436 kts | 249° |
| 2026-04-21 14:22 | -3.52066 | 57.52180 | 35853 ft | 436 kts | 249° |
| 2026-04-21 14:23 | -3.54472 | 57.46648 | 35858 ft | 435 kts | 249° |
| 2026-04-21 14:23 | -3.56888 | 57.41094 | 35855 ft | 434 kts | 250° |
| 2026-04-21 14:24 | -3.59295 | 57.35556 | 35855 ft | 434 kts | 250° |
| 2026-04-21 14:24 | -3.61703 | 57.30013 | 35852 ft | 434 kts | 249° |
| 2026-04-21 14:25 | -3.64117 | 57.24467 | 35855 ft | 434 kts | 250° |
| 2026-04-21 14:25 | -3.66531 | 57.18917 | 35854 ft | 432 kts | 249° |
| 2026-04-21 14:26 | -3.68902 | 57.13468 | 35852 ft | 426 kts | 250° |
| 2026-04-21 14:26 | -3.71278 | 57.07984 | 35865 ft | 433 kts | 249° |
| 2026-04-21 14:27 | -3.73678 | 57.02455 | 35539 ft | 428 kts | 249° |
| 2026-04-21 14:27 | -3.74861 | 56.99732 | 35068 ft | 426 kts | 249° |
| 2026-04-21 14:27 | -3.76026 | 56.97053 | 34548 ft | 423 kts | 249° |
| 2026-04-21 14:27 | -3.77197 | 56.94355 | 34023 ft | 421 kts | 250° |
| 2026-04-21 14:28 | -3.78361 | 56.91675 | 33460 ft | 418 kts | 250° |
| 2026-04-21 14:28 | -3.79516 | 56.89012 | 32918 ft | 417 kts | 250° |
| 2026-04-21 14:28 | -3.80671 | 56.86353 | 32408 ft | 415 kts | 249° |
| 2026-04-21 14:28 | -3.81824 | 56.83698 | 31889 ft | 413 kts | 249° |
| 2026-04-21 14:29 | -3.82973 | 56.81054 | 31384 ft | 412 kts | 249° |
| 2026-04-21 14:29 | -3.84098 | 56.78460 | 30726 ft | 413 kts | 249° |
| 2026-04-21 14:29 | -3.85243 | 56.75819 | 30161 ft | 411 kts | 249° |
| 2026-04-21 14:29 | -3.86381 | 56.73197 | 29621 ft | 407 kts | 249° |
| 2026-04-21 14:30 | -3.87503 | 56.70612 | 29072 ft | 402 kts | 249° |
| 2026-04-21 14:30 | -3.88612 | 56.68055 | 28569 ft | 397 kts | 249° |
| 2026-04-21 14:30 | -3.89693 | 56.65561 | 28096 ft | 392 kts | 249° |
| 2026-04-21 14:30 | -3.90773 | 56.63072 | 27639 ft | 387 kts | 249° |
| 2026-04-21 14:31 | -3.91837 | 56.60620 | 27215 ft | 382 kts | 249° |
| 2026-04-21 14:31 | -3.92894 | 56.58180 | 26754 ft | 381 kts | 249° |
| 2026-04-21 14:31 | -3.93947 | 56.55745 | 26285 ft | 380 kts | 249° |
| 2026-04-21 14:31 | -3.95003 | 56.53311 | 25821 ft | 379 kts | 248° |
| 2026-04-21 14:32 | -3.96048 | 56.50901 | 25385 ft | 377 kts | 248° |
| 2026-04-21 14:32 | -3.97091 | 56.48494 | 24949 ft | 376 kts | 248° |
| 2026-04-21 14:32 | -3.98131 | 56.46097 | 24484 ft | 374 kts | 248° |
| 2026-04-21 14:32 | -3.99164 | 56.43714 | 24033 ft | 371 kts | 248° |
| 2026-04-21 14:33 | -4.00177 | 56.41378 | 23578 ft | 368 kts | 248° |
| 2026-04-21 14:33 | -4.01206 | 56.39004 | 23067 ft | 366 kts | 248° |
| 2026-04-21 14:33 | -4.02203 | 56.36701 | 22565 ft | 362 kts | 248° |
| 2026-04-21 14:33 | -4.03200 | 56.34400 | 22081 ft | 359 kts | 247° |
| 2026-04-21 14:34 | -4.04192 | 56.32110 | 21608 ft | 356 kts | 247° |
| 2026-04-21 14:34 | -4.05172 | 56.29845 | 21142 ft | 353 kts | 247° |
| 2026-04-21 14:34 | -4.06145 | 56.27598 | 20691 ft | 350 kts | 247° |
| 2026-04-21 14:34 | -4.07108 | 56.25374 | 20272 ft | 347 kts | 247° |
| 2026-04-21 14:35 | -4.08067 | 56.23159 | 19859 ft | 346 kts | 247° |
| 2026-04-21 14:35 | -4.09024 | 56.20948 | 19460 ft | 345 kts | 247° |
| 2026-04-21 14:35 | -4.09982 | 56.18736 | 19053 ft | 346 kts | 247° |
| 2026-04-21 14:35 | -4.10929 | 56.16547 | 18653 ft | 347 kts | 246° |
| 2026-04-21 14:36 | -4.11891 | 56.14326 | 18261 ft | 347 kts | 246° |
| 2026-04-21 14:36 | -4.12855 | 56.12103 | 17835 ft | 348 kts | 246° |
| 2026-04-21 14:36 | -4.13821 | 56.09872 | 17405 ft | 349 kts | 246° |
| 2026-04-21 14:36 | -4.14786 | 56.07644 | 16990 ft | 349 kts | 246° |
| 2026-04-21 14:37 | -4.15754 | 56.05404 | 16584 ft | 348 kts | 247° |
| 2026-04-21 14:37 | -4.16709 | 56.03195 | 16207 ft | 341 kts | 247° |
| 2026-04-21 14:37 | -4.17636 | 56.01056 | 15861 ft | 335 kts | 247° |
| 2026-04-21 14:37 | -4.18555 | 55.98930 | 15515 ft | 329 kts | 247° |
| 2026-04-21 14:38 | -4.19457 | 55.96844 | 15202 ft | 323 kts | 247° |
| 2026-04-21 14:38 | -4.20344 | 55.94792 | 14926 ft | 319 kts | 247° |
| 2026-04-21 14:38 | -4.21227 | 55.92751 | 14620 ft | 319 kts | 247° |
| 2026-04-21 14:38 | -4.22110 | 55.90708 | 14306 ft | 318 kts | 247° |
| 2026-04-21 14:39 | -4.22990 | 55.88674 | 13978 ft | 318 kts | 247° |
| 2026-04-21 14:39 | -4.23872 | 55.86638 | 13650 ft | 318 kts | 247° |
| 2026-04-21 14:39 | -4.24751 | 55.84602 | 13274 ft | 319 kts | 247° |
| 2026-04-21 14:39 | -4.25622 | 55.82587 | 12924 ft | 318 kts | 247° |
| 2026-04-21 14:40 | -4.26500 | 55.80556 | 12583 ft | 318 kts | 247° |
| 2026-04-21 14:40 | -4.27379 | 55.78524 | 12243 ft | 317 kts | 247° |
| 2026-04-21 14:40 | -4.28256 | 55.76491 | 11899 ft | 317 kts | 247° |
| 2026-04-21 14:40 | -4.29133 | 55.74461 | 11542 ft | 317 kts | 247° |
| 2026-04-21 14:41 | -4.29977 | 55.72421 | 11184 ft | 317 kts | 252° |
| 2026-04-21 14:41 | -4.30303 | 55.70244 | 10834 ft | 316 kts | 272° |
| 2026-04-21 14:41 | -4.29744 | 55.68134 | 10494 ft | 315 kts | 297° |
| 2026-04-21 14:41 | -4.28649 | 55.66267 | 10186 ft | 314 kts | 301° |
| 2026-04-21 14:42 | -4.27511 | 55.64402 | 9885 ft | 311 kts | 300° |
| 2026-04-21 14:42 | -4.26430 | 55.62556 | 9690 ft | 301 kts | 300° |
| 2026-04-21 14:42 | -4.25409 | 55.60759 | 9307 ft | 292 kts | 299° |
| 2026-04-21 14:42 | -4.24434 | 55.59005 | 8907 ft | 283 kts | 298° |
| 2026-04-21 14:43 | -4.23495 | 55.57297 | 8563 ft | 279 kts | 298° |
| 2026-04-21 14:43 | -4.22559 | 55.55586 | 8219 ft | 280 kts | 298° |
| 2026-04-21 14:43 | -4.21626 | 55.53869 | 7895 ft | 281 kts | 298° |
| 2026-04-21 14:43 | -4.20719 | 55.52153 | 7576 ft | 282 kts | 294° |
| 2026-04-21 14:44 | -4.20275 | 55.50249 | 7234 ft | 283 kts | 269° |
| 2026-04-21 14:44 | -4.20756 | 55.48350 | 6906 ft | 283 kts | 242° |
| 2026-04-21 14:44 | -4.22064 | 55.46894 | 6589 ft | 284 kts | 214° |
| 2026-04-21 14:44 | -4.23897 | 55.46206 | 6261 ft | 284 kts | 187° |
| 2026-04-21 14:45 | -4.25850 | 55.46171 | 5934 ft | 284 kts | 179° |
| 2026-04-21 14:45 | -4.27826 | 55.46232 | 5597 ft | 283 kts | 179° |
| 2026-04-21 14:45 | -4.29787 | 55.46275 | 5268 ft | 280 kts | 179° |
| 2026-04-21 14:45 | -4.31732 | 55.46299 | 4935 ft | 279 kts | 180° |
| 2026-04-21 14:46 | -4.33679 | 55.46311 | 4611 ft | 278 kts | 180° |
| 2026-04-21 14:46 | -4.35586 | 55.46317 | 4486 ft | 266 kts | 180° |
| 2026-04-21 14:46 | -4.37389 | 55.46321 | 4463 ft | 250 kts | 180° |
| 2026-04-21 14:46 | -4.39061 | 55.46322 | 4464 ft | 231 kts | 180° |
| 2026-04-21 14:47 | -4.40631 | 55.46324 | 4475 ft | 229 kts | 180° |
| 2026-04-21 14:47 | -4.42229 | 55.46323 | 4499 ft | 233 kts | 180° |
| 2026-04-21 14:47 | -4.43852 | 55.46324 | 4317 ft | 233 kts | 180° |
| 2026-04-21 14:47 | -4.45473 | 55.46324 | 3976 ft | 233 kts | 180° |
| 2026-04-21 14:48 | -4.47092 | 55.46324 | 3633 ft | 232 kts | 180° |
| 2026-04-21 14:48 | -4.48706 | 55.46323 | 3277 ft | 232 kts | 179° |
| 2026-04-21 14:48 | -4.50324 | 55.46323 | 2925 ft | 231 kts | 179° |
| 2026-04-21 14:48 | -4.51929 | 55.46322 | 2592 ft | 229 kts | 179° |
| 2026-04-21 14:49 | -4.53475 | 55.46329 | 2295 ft | 212 kts | 179° |
| 2026-04-21 14:49 | -4.54846 | 55.46340 | 2265 ft | 184 kts | 179° |
| 2026-04-21 14:49 | -4.55991 | 55.46350 | 2264 ft | 142 kts | 179° |
| 2026-04-21 14:49 | -4.56951 | 55.46358 | 2254 ft | 137 kts | 178° |
| 2026-04-21 14:50 | -4.57575 | 55.46363 | 2237 ft | 135 kts | 178° |
| 2026-04-21 14:50 | -4.58834 | 55.46360 | 2026 ft | 134 kts | 178° |
| 2026-04-21 14:50 | -4.59769 | 55.46366 | 1840 ft | 134 kts | 179° |
| 2026-04-21 14:50 | -4.60701 | 55.46371 | 1661 ft | 134 kts | 178° |
| 2026-04-21 14:51 | -4.61627 | 55.46374 | 1479 ft | 133 kts | 178° |
| 2026-04-21 14:51 | -4.62547 | 55.46433 | 1285 ft | 132 kts | 163° |
| 2026-04-21 14:51 | -4.63381 | 55.46802 | 1140 ft | 131 kts | 150° |
| 2026-04-21 14:51 | -4.64079 | 55.47367 | 937 ft | 129 kts | 129° |
| 2026-04-21 14:52 | -4.64608 | 55.48086 | 808 ft | 128 kts | 124° |
| 2026-04-21 14:52 | -4.65129 | 55.48815 | 652 ft | 128 kts | 123° |
| 2026-04-21 14:52 | -4.65614 | 55.49543 | 424 ft | 127 kts | 122° |
| 2026-04-21 14:52 | -4.66127 | 55.50267 | 282 ft | 127 kts | 123° |
| 2026-04-21 14:53 | -4.66617 | 55.50999 | 119 ft | 127 kts | 124° |
| 2026-04-21 14:53 | -4.67121 | 55.51719 | 37 ft | 122 kts | 124° |
| 2026-04-21 14:53 | -4.67527 | 55.52308 | 27 ft | 73 kts | 126° |
| 2026-04-21 14:53 | -4.67702 | 55.52568 | 28 ft | 21 kts | 121° |
| 2026-04-21 14:54 | -4.67790 | 55.52694 | 26 ft | 23 kts | 127° |
| 2026-04-21 14:54 | -4.67888 | 55.52836 | 27 ft | 26 kts | 124° |
| 2026-04-21 14:54 | -4.67999 | 55.52997 | 28 ft | 30 kts | 124° |
| 2026-04-21 14:54 | -4.68077 | 55.53112 | 28 ft | 25 kts | 124° |
| 2026-04-21 14:55 | -4.68218 | 55.53169 | 26 ft | 13 kts | 168° |
| 2026-04-21 14:55 | -4.68250 | 55.53241 | 27 ft | 16 kts | 45° |
| 2026-04-21 14:55 | -4.68136 | 55.53196 | 27 ft | 20 kts | 305° |
| 2026-04-21 14:55 | -4.68081 | 55.53115 | 28 ft | 23 kts | 305° |
| 2026-04-21 14:56 | -4.67982 | 55.52972 | 28 ft | 27 kts | 304° |
| 2026-04-21 14:56 | -4.67875 | 55.52815 | 27 ft | 28 kts | 304° |
| 2026-04-21 14:56 | -4.67760 | 55.52647 | 26 ft | 30 kts | 304° |
| 2026-04-21 14:56 | -4.67638 | 55.52470 | 27 ft | 32 kts | 304° |
| 2026-04-21 14:57 | -4.67523 | 55.52305 | 27 ft | 28 kts | 304° |
| 2026-04-21 14:57 | -4.67406 | 55.52134 | 28 ft | 31 kts | 304° |
| 2026-04-21 14:57 | -4.67282 | 55.51954 | 28 ft | 32 kts | 304° |
| 2026-04-21 14:57 | -4.67167 | 55.51785 | 27 ft | 29 kts | 304° |
| 2026-04-21 14:58 | -4.67048 | 55.51612 | 27 ft | 30 kts | 304° |
| 2026-04-21 14:58 | -4.66944 | 55.51461 | 27 ft | 20 kts | 305° |
| 2026-04-21 14:58 | -4.66911 | 55.51359 | 28 ft | 17 kts | 229° |
| 2026-04-21 14:58 | -4.66994 | 55.51300 | 29 ft | 11 kts | 219° |
| 2026-04-21 14:59 | -4.67006 | 55.51234 | 26 ft | 5 kts | 300° |
| 2026-04-21 14:59 | -4.67001 | 55.51195 | 28 ft | 6 kts | 215° |
| 2026-04-21 14:59 | -4.67030 | 55.51172 | 29 ft | 4 kts | 214° |
| 2026-04-21 14:59 | -4.67037 | 55.51167 | 26 ft | 0 kts | 215° |